TimeEST,TemperatureF,Dew PointF,Humidity,Sea Level PressureIn,VisibilityMPH,Wind Direction,Wind SpeedMPH,Gust SpeedMPH,PrecipitationIn,Events,Conditions,WindDirDegrees,DateUTC
12:54 AM,36.0,32.0,86,30.49,10.0,Calm,Calm,-,N/A,,Clear,0,2013-11-05 05:54:00
1:54 AM,36.0,32.0,86,30.49,10.0,Calm,Calm,-,N/A,,Clear,0,2013-11-05 06:54:00
2:54 AM,36.0,32.0,86,30.48,10.0,Calm,Calm,-,N/A,,Clear,0,2013-11-05 07:54:00
3:54 AM,35.1,32.0,89,30.48,10.0,Calm,Calm,-,N/A,,Clear,0,2013-11-05 08:54:00
4:54 AM,34.0,30.9,89,30.51,10.0,Calm,Calm,-,N/A,,Clear,0,2013-11-05 09:54:00
5:54 AM,32.0,30.9,96,30.51,10.0,Calm,Calm,-,N/A,,Clear,0,2013-11-05 10:54:00
6:54 AM,34.0,32.0,92,30.52,10.0,Calm,Calm,-,N/A,,Clear,0,2013-11-05 11:54:00
7:54 AM,35.1,32.0,89,30.52,10.0,Calm,Calm,-,N/A,,Clear,0,2013-11-05 12:54:00
8:54 AM,37.9,32.0,79,30.54,10.0,Calm,Calm,-,N/A,,Clear,0,2013-11-05 13:54:00
9:54 AM,41.0,32.0,70,30.54,10.0,SSE,3.5,-,N/A,,Clear,150,2013-11-05 14:54:00
10:54 AM,45.0,30.9,58,30.53,10.0,South,6.9,-,N/A,,Clear,170,2013-11-05 15:54:00
11:54 AM,48.9,30.0,48,30.50,10.0,Variable,5.8,-,N/A,,Clear,0,2013-11-05 16:54:00
12:54 PM,52.0,30.0,43,30.47,10.0,SSW,8.1,-,N/A,,Clear,200,2013-11-05 17:54:00
1:54 PM,54.0,27.0,35,30.45,10.0,SSW,8.1,-,N/A,,Clear,200,2013-11-05 18:54:00
2:54 PM,57.0,24.1,28,30.42,10.0,SSE,8.1,-,N/A,,Clear,160,2013-11-05 19:54:00
3:54 PM,55.0,35.1,47,30.43,10.0,South,10.4,-,N/A,,Clear,180,2013-11-05 20:54:00
4:54 PM,53.1,34.0,48,30.43,10.0,SSE,6.9,-,N/A,,Clear,160,2013-11-05 21:54:00
5:54 PM,48.0,35.1,61,30.44,10.0,South,4.6,-,N/A,,Clear,170,2013-11-05 22:54:00
6:54 PM,48.0,36.0,63,30.46,10.0,Calm,Calm,-,N/A,,Clear,0,2013-11-05 23:54:00
7:54 PM,45.0,36.0,71,30.46,10.0,Calm,Calm,-,N/A,,Clear,0,2013-11-06 00:54:00
8:54 PM,44.1,37.0,76,30.46,10.0,South,3.5,-,N/A,,Clear,170,2013-11-06 01:54:00
9:54 PM,42.1,35.1,76,30.47,10.0,Calm,Calm,-,N/A,,Clear,0,2013-11-06 02:54:00
10:18 PM,42.8,35.6,76,30.45,10.0,Calm,Calm,-,N/A,,Mostly Cloudy,0,2013-11-06 03:18:00
10:54 PM,43.0,36.0,76,30.45,10.0,Calm,Calm,-,N/A,,Overcast,0,2013-11-06 03:54:00
11:23 PM,44.6,35.6,71,30.43,10.0,Calm,Calm,-,N/A,,Overcast,0,2013-11-06 04:23:00
11:54 PM,45.0,37.0,74,30.43,10.0,Calm,Calm,-,N/A,,Overcast,0,2013-11-06 04:54:00